createdAt,value
2023-03-28T00:00:43.598Z,21.80
2023-03-28T00:03:14.602Z,21.80
2023-03-28T00:05:42.473Z,21.80
2023-03-28T00:08:09.858Z,21.80
2023-03-28T00:10:37.235Z,21.80
2023-03-28T00:13:04.736Z,21.70
2023-03-28T00:15:32.010Z,21.70
2023-03-28T00:18:02.151Z,21.70
2023-03-28T00:20:29.992Z,21.70
2023-03-28T00:22:57.115Z,21.70
2023-03-28T00:25:24.263Z,21.70
2023-03-28T00:27:51.460Z,21.70
2023-03-28T00:30:19.217Z,21.70
2023-03-28T00:32:46.258Z,21.70
2023-03-28T00:35:13.486Z,21.80
2023-03-28T00:37:42.186Z,21.70
2023-03-28T00:40:09.961Z,21.70
2023-03-28T00:42:42.515Z,21.70
2023-03-28T00:45:11.837Z,21.70
2023-03-28T00:47:49.648Z,21.70
2023-03-28T00:50:23.895Z,21.70
2023-03-28T00:52:59.004Z,21.70
2023-03-28T00:55:31.866Z,21.70
2023-03-28T00:57:59.726Z,21.70
2023-03-28T01:00:29.242Z,21.70
2023-03-28T01:02:58.541Z,21.70
2023-03-28T01:05:32.874Z,21.70
2023-03-28T01:08:20.146Z,21.80
2023-03-28T01:10:47.768Z,21.70
2023-03-28T01:13:19.298Z,21.70
2023-03-28T01:15:50.445Z,21.70
2023-03-28T01:18:22.869Z,21.70
2023-03-28T01:21:31.405Z,21.70
2023-03-28T01:24:31.408Z,21.70
2023-03-28T01:27:34.884Z,21.70
2023-03-28T01:30:32.125Z,21.70
2023-03-28T01:33:30.603Z,21.70
2023-03-28T01:36:34.221Z,21.70
2023-03-28T01:39:35.230Z,21.70
2023-03-28T01:42:27.312Z,21.80
2023-03-28T01:45:10.515Z,21.70
2023-03-28T01:47:45.908Z,21.70
2023-03-28T01:50:36.861Z,21.70
2023-03-28T01:53:15.085Z,21.70
2023-03-28T01:56:03.705Z,21.70
2023-03-28T01:58:46.575Z,21.70
2023-03-28T02:01:27.566Z,21.70
2023-03-28T02:04:01.173Z,21.70
2023-03-28T02:06:30.944Z,21.70
2023-03-28T02:08:58.736Z,21.70
2023-03-28T02:11:28.495Z,21.70
2023-03-28T02:14:01.566Z,21.70
2023-03-28T02:16:32.286Z,21.70
2023-03-28T02:19:00.792Z,21.70
2023-03-28T02:21:50.856Z,21.70
2023-03-28T02:24:17.956Z,21.70
2023-03-28T02:26:47.668Z,21.70
2023-03-28T02:29:17.026Z,21.70
2023-03-28T02:31:44.304Z,21.70
2023-03-28T02:34:11.732Z,21.70
2023-03-28T02:37:04.024Z,21.70
2023-03-28T02:39:57.806Z,21.70
2023-03-28T02:42:50.443Z,21.70
2023-03-28T02:45:51.363Z,21.70
2023-03-28T02:48:37.203Z,21.70
2023-03-28T02:51:31.786Z,21.60
2023-03-28T02:54:10.046Z,21.60
2023-03-28T02:57:01.522Z,21.60
2023-03-28T02:59:38.081Z,21.60
2023-03-28T03:02:08.612Z,21.70
2023-03-28T03:04:35.756Z,21.70
2023-03-28T03:07:02.923Z,21.60
2023-03-28T03:09:29.986Z,21.70
2023-03-28T03:11:57.043Z,21.60
2023-03-28T03:14:24.185Z,21.60
2023-03-28T03:16:52.014Z,21.70
2023-03-28T03:19:19.598Z,21.60
2023-03-28T03:21:46.735Z,21.70
2023-03-28T03:24:14.579Z,21.70
2023-03-28T03:26:42.004Z,21.70
2023-03-28T03:29:09.303Z,21.60
2023-03-28T03:31:37.080Z,21.60
2023-03-28T03:34:04.213Z,21.70
2023-03-28T03:36:32.009Z,21.60
2023-03-28T03:38:59.736Z,21.60
2023-03-28T03:41:26.838Z,21.60
2023-03-28T03:43:53.845Z,21.60
2023-03-28T03:46:21.082Z,21.60
2023-03-28T03:48:49.648Z,21.60
2023-03-28T03:51:19.028Z,21.60
2023-03-28T03:53:46.856Z,21.60
2023-03-28T03:56:13.951Z,21.60
2023-03-28T03:58:41.008Z,21.60
2023-03-28T04:01:14.115Z,21.60
2023-03-28T04:03:42.605Z,21.60
2023-03-28T04:06:10.145Z,21.60
2023-03-28T04:08:37.149Z,21.60
2023-03-28T04:11:04.327Z,21.60
2023-03-28T04:13:31.388Z,21.60
2023-03-28T04:15:58.670Z,21.60
2023-03-28T04:18:26.000Z,21.50
2023-03-28T04:20:58.070Z,21.60
2023-03-28T04:23:25.924Z,21.60
2023-03-28T04:25:57.775Z,21.60
2023-03-28T04:28:25.911Z,21.60
2023-03-28T04:30:54.807Z,21.50
2023-03-28T04:33:25.581Z,21.50
2023-03-28T04:36:00.427Z,21.50
2023-03-28T04:38:32.505Z,21.50
2023-03-28T04:40:59.815Z,21.40
2023-03-28T04:43:28.392Z,21.40
2023-03-28T04:45:56.383Z,21.40
2023-03-28T04:48:24.527Z,21.40
2023-03-28T04:50:51.969Z,21.40
2023-03-28T04:53:19.386Z,21.40
2023-03-28T04:55:50.785Z,21.40
2023-03-28T04:58:20.043Z,21.40
2023-03-28T05:00:49.829Z,21.40
2023-03-28T05:03:22.123Z,21.40
2023-03-28T05:05:52.304Z,21.40
2023-03-28T05:08:22.745Z,21.40
2023-03-28T05:10:50.117Z,21.50
2023-03-28T05:13:17.544Z,21.50
2023-03-28T05:15:47.014Z,21.50
2023-03-28T05:18:14.616Z,21.60
2023-03-28T05:20:42.043Z,21.60
2023-03-28T05:23:09.454Z,21.60
2023-03-28T05:25:37.298Z,21.60
2023-03-28T05:28:05.350Z,21.70
2023-03-28T05:30:32.925Z,21.70
2023-03-28T05:33:00.876Z,21.70
2023-03-28T05:35:28.107Z,21.80
2023-03-28T05:37:55.230Z,21.80
2023-03-28T05:40:23.508Z,21.80
2023-03-28T05:42:51.265Z,21.90
2023-03-28T05:45:18.514Z,21.90
2023-03-28T05:47:45.763Z,21.90
2023-03-28T05:50:13.088Z,22.00
2023-03-28T05:52:40.704Z,22.10
2023-03-28T05:55:08.509Z,22.10
2023-03-28T05:57:35.780Z,22.20
2023-03-28T06:00:10.692Z,22.20
2023-03-28T06:02:37.783Z,22.20
2023-03-28T06:05:05.491Z,22.30
2023-03-28T06:07:42.101Z,22.30
2023-03-28T06:10:11.869Z,22.40
2023-03-28T06:12:39.144Z,22.40
2023-03-28T06:15:07.032Z,22.50
2023-03-28T06:17:34.253Z,22.50
2023-03-28T06:20:01.540Z,22.50
2023-03-28T06:22:28.710Z,22.60
2023-03-28T06:24:56.338Z,22.60
2023-03-28T06:27:23.465Z,22.60
2023-03-28T06:29:50.716Z,22.60
2023-03-28T06:32:19.329Z,22.70
2023-03-28T06:34:46.570Z,22.70
2023-03-28T06:37:13.989Z,22.80
2023-03-28T06:39:41.387Z,22.80
2023-03-28T06:42:08.458Z,22.80
2023-03-28T06:44:35.513Z,22.90
2023-03-28T06:47:03.001Z,22.90
2023-03-28T06:49:30.414Z,23.00
2023-03-28T06:51:57.461Z,23.00
2023-03-28T06:54:24.827Z,23.10
2023-03-28T06:56:52.089Z,23.10
2023-03-28T06:59:19.155Z,23.20
2023-03-28T07:01:46.671Z,23.20
2023-03-28T07:04:13.846Z,23.20
2023-03-28T07:06:41.547Z,23.30
2023-03-28T07:09:08.567Z,23.30
2023-03-28T07:11:35.853Z,23.30
2023-03-28T07:14:03.315Z,23.30
2023-03-28T07:16:30.416Z,22.90
2023-03-28T07:18:57.535Z,22.50
2023-03-28T07:21:24.608Z,22.30
2023-03-28T07:23:51.641Z,22.40
2023-03-28T07:26:20.061Z,22.40
2023-03-28T07:28:47.180Z,22.40
2023-03-28T07:31:14.330Z,22.50
2023-03-28T07:33:41.462Z,22.60
2023-03-28T07:36:15.072Z,22.70
2023-03-28T07:38:42.422Z,22.80
2023-03-28T07:41:09.578Z,22.90
2023-03-28T07:43:38.904Z,22.90
2023-03-28T07:46:10.421Z,23.00
2023-03-28T07:48:38.405Z,23.00
2023-03-28T07:51:06.630Z,23.10
2023-03-28T07:53:34.993Z,23.10
2023-03-28T07:56:02.333Z,23.30
2023-03-28T07:58:29.566Z,23.30
2023-03-28T08:01:09.493Z,23.30
2023-03-28T08:03:59.747Z,23.40
2023-03-28T08:06:32.475Z,23.40
2023-03-28T08:09:00.740Z,23.40
2023-03-28T08:11:28.257Z,23.50
2023-03-28T08:13:55.461Z,23.50
2023-03-28T08:16:22.739Z,23.60
2023-03-28T08:18:57.086Z,23.60
2023-03-28T08:21:31.981Z,23.70
2023-03-28T08:23:59.637Z,23.70
2023-03-28T08:26:28.416Z,23.80
2023-03-28T08:28:58.952Z,23.80
2023-03-28T08:31:28.258Z,23.90
2023-03-28T08:33:56.285Z,24.00
2023-03-28T08:36:26.290Z,24.00
2023-03-28T08:39:00.839Z,24.10
2023-03-28T08:41:53.012Z,24.20
2023-03-28T08:44:59.807Z,24.20
2023-03-28T08:47:31.254Z,24.30
2023-03-28T08:50:04.182Z,24.30
2023-03-28T08:52:33.070Z,24.40
2023-03-28T08:55:06.505Z,24.40
2023-03-28T08:57:36.122Z,24.50
2023-03-28T09:00:27.826Z,24.50
2023-03-28T09:02:57.344Z,24.60
2023-03-28T09:05:46.494Z,24.70
2023-03-28T09:08:36.634Z,24.70
2023-03-28T09:11:29.640Z,24.70
2023-03-28T09:14:22.214Z,24.70
2023-03-28T09:17:15.724Z,24.70
2023-03-28T09:20:11.553Z,24.90
2023-03-28T09:23:07.908Z,24.80
2023-03-28T09:26:07.534Z,24.90
2023-03-28T09:28:54.257Z,24.90
2023-03-28T09:31:28.031Z,24.90
2023-03-28T09:33:58.551Z,24.90
2023-03-28T09:36:45.474Z,25.00
2023-03-28T09:39:45.852Z,25.00
2023-03-28T09:42:30.318Z,25.00
2023-03-28T09:45:16.634Z,25.10
2023-03-28T09:47:53.990Z,25.10
2023-03-28T09:50:36.943Z,25.10
2023-03-28T09:53:04.546Z,25.10
2023-03-28T09:55:49.050Z,25.20
2023-03-28T11:55:26.641Z,25.70
2023-03-28T11:58:16.189Z,25.70
2023-03-28T12:01:09.175Z,25.70
2023-03-28T12:04:03.985Z,25.70
2023-03-28T12:07:02.872Z,25.70
2023-03-28T12:10:07.915Z,25.70
2023-03-28T12:13:03.443Z,25.80
2023-03-28T12:16:24.333Z,25.70
2023-03-28T12:19:01.156Z,25.70
2023-03-28T12:21:39.024Z,25.70
2023-03-28T12:24:25.822Z,25.70
2023-03-28T12:31:22.616Z,25.80
2023-03-28T12:34:49.472Z,25.80
2023-03-28T12:44:11.854Z,25.60
2023-03-28T12:46:50.177Z,25.60
2023-03-28T12:49:37.834Z,25.60
2023-03-28T12:52:07.843Z,25.70
2023-03-28T12:54:52.591Z,25.70
2023-03-28T12:57:44.076Z,25.70
2023-03-28T13:00:37.702Z,25.70
2023-03-28T13:03:41.530Z,25.70
2023-03-28T13:06:34.169Z,25.70
2023-03-28T13:09:36.271Z,25.70
2023-03-28T13:12:50.293Z,25.70
2023-03-28T13:15:31.687Z,25.70
2023-03-28T13:18:25.482Z,25.70
2023-03-28T13:20:54.150Z,25.70
2023-03-28T13:23:31.312Z,25.80
2023-03-28T13:26:24.983Z,25.80
2023-03-28T13:36:07.780Z,25.80
2023-03-28T13:38:47.847Z,25.80
2023-03-28T13:42:08.691Z,25.80
2023-03-28T13:44:56.664Z,25.70
2023-03-28T13:47:37.235Z,25.70
2023-03-28T13:50:26.684Z,25.70
2023-03-28T14:07:13.779Z,25.70
2023-03-28T14:09:41.136Z,25.70
2023-03-28T14:12:14.394Z,25.70
2023-03-28T14:14:49.355Z,25.60
2023-03-28T14:17:21.600Z,25.60
2023-03-28T14:19:54.246Z,25.50
2023-03-28T14:22:24.963Z,25.50
2023-03-28T14:24:55.172Z,25.50
2023-03-28T14:27:42.136Z,25.40
2023-03-28T14:30:43.780Z,25.40
2023-03-28T14:33:24.533Z,25.40
2023-03-28T14:36:12.016Z,25.40
2023-03-28T14:38:39.784Z,25.30
2023-03-28T14:41:21.317Z,25.30
2023-03-28T14:43:53.059Z,25.20
2023-03-28T14:46:30.149Z,25.20
2023-03-28T14:49:00.104Z,25.20
2023-03-28T14:51:28.326Z,25.10
2023-03-28T14:53:56.520Z,25.10
2023-03-28T14:56:26.628Z,25.00
2023-03-28T14:59:00.434Z,25.00
2023-03-28T15:01:41.230Z,25.00
2023-03-28T15:04:11.177Z,24.90
2023-03-28T15:06:43.591Z,24.90
2023-03-28T15:09:22.824Z,24.90
2023-03-28T15:11:49.977Z,24.80
2023-03-28T15:14:28.083Z,24.80
2023-03-28T15:16:56.179Z,24.80
2023-03-28T15:19:28.537Z,24.80
2023-03-28T15:22:00.285Z,24.80
2023-03-28T15:24:28.808Z,24.70
2023-03-28T15:27:01.859Z,24.70
2023-03-28T15:29:34.026Z,24.70
2023-03-28T15:32:16.809Z,24.70
2023-03-28T15:34:54.596Z,24.70
2023-03-28T15:37:24.909Z,24.70
2023-03-28T15:39:53.176Z,24.70
2023-03-28T15:42:35.046Z,24.70
2023-03-28T15:45:24.439Z,24.60
2023-03-28T15:47:56.047Z,24.70
2023-03-28T15:50:31.151Z,24.60
2023-03-28T15:53:00.729Z,24.60
2023-03-28T15:55:28.388Z,24.50
2023-03-28T15:57:56.916Z,24.50
2023-03-28T16:00:49.312Z,24.50
2023-03-28T16:03:34.349Z,24.50
2023-03-28T16:06:30.860Z,24.40
2023-03-28T16:09:19.795Z,24.40
2023-03-28T16:11:50.668Z,24.30
2023-03-28T16:14:20.531Z,24.30
2023-03-28T16:16:47.840Z,24.30
2023-03-28T16:19:21.419Z,24.30
2023-03-28T16:21:48.878Z,24.20
2023-03-28T16:24:16.272Z,24.20
2023-03-28T16:26:43.672Z,24.10
2023-03-28T16:29:11.524Z,24.10
2023-03-28T16:31:38.997Z,24.10
2023-03-28T16:34:09.200Z,24.00
2023-03-28T16:36:39.138Z,24.00
2023-03-28T16:39:08.371Z,23.90
2023-03-28T16:41:35.923Z,23.90
2023-03-28T16:44:03.612Z,23.90
2023-03-28T16:46:31.131Z,23.90
2023-03-28T16:48:58.363Z,23.80
2023-03-28T16:51:25.965Z,23.80
2023-03-28T16:53:53.035Z,23.80
2023-03-28T16:56:20.360Z,23.70
2023-03-28T16:58:48.466Z,23.70
2023-03-28T17:01:19.416Z,23.70
2023-03-28T17:03:47.494Z,23.60
2023-03-28T17:06:16.420Z,23.60
2023-03-28T17:08:44.500Z,23.60
2023-03-28T17:11:12.596Z,23.60
2023-03-28T17:13:40.773Z,23.60
2023-03-28T17:16:09.483Z,23.50
2023-03-28T17:18:37.182Z,23.50
2023-03-28T17:21:07.177Z,23.50
2023-03-28T17:23:35.729Z,23.40
2023-03-28T17:26:03.206Z,23.40
2023-03-28T17:28:30.998Z,23.40
2023-03-28T17:30:58.128Z,23.40
2023-03-28T17:33:29.553Z,23.40
2023-03-28T17:35:57.149Z,23.30
2023-03-28T17:38:24.301Z,23.30
2023-03-28T17:40:51.862Z,23.30
2023-03-28T17:43:18.921Z,23.30
2023-03-28T17:45:46.005Z,23.30
2023-03-28T17:48:13.071Z,23.30
2023-03-28T17:50:40.262Z,23.30
2023-03-28T17:53:07.470Z,23.20
2023-03-28T17:55:34.822Z,23.20
2023-03-28T17:58:02.751Z,23.10
2023-03-28T18:00:31.514Z,23.10
2023-03-28T18:02:58.882Z,23.10
2023-03-28T18:05:28.368Z,23.10
2023-03-28T18:07:56.494Z,23.00
2023-03-28T18:10:24.463Z,23.00
2023-03-28T18:12:52.053Z,23.00
2023-03-28T18:15:19.305Z,23.00
2023-03-28T18:17:46.695Z,23.00
2023-03-28T18:20:14.258Z,23.00
2023-03-28T18:22:43.107Z,22.90
2023-03-28T18:25:10.291Z,22.90
2023-03-28T18:27:38.373Z,22.90
2023-03-28T18:30:08.461Z,22.90
2023-03-28T18:32:41.193Z,22.90
2023-03-28T18:35:09.897Z,22.90
2023-03-28T18:37:37.011Z,22.90
2023-03-28T18:40:41.283Z,22.80
2023-03-28T18:43:09.373Z,22.80
2023-03-28T18:45:37.265Z,22.80
2023-03-28T18:48:04.786Z,22.80
2023-03-28T18:50:32.189Z,22.70
2023-03-28T18:52:59.319Z,22.70
2023-03-28T18:55:26.713Z,22.70
2023-03-28T18:57:53.927Z,22.70
2023-03-28T19:00:21.941Z,22.70
2023-03-28T19:02:49.906Z,22.60
2023-03-28T19:05:17.606Z,22.60
2023-03-28T19:07:45.758Z,22.60
2023-03-28T19:10:13.586Z,22.60
2023-03-28T19:12:41.804Z,22.60
2023-03-28T19:15:11.243Z,22.70
2023-03-28T19:17:41.431Z,22.60
2023-03-28T19:20:12.929Z,22.60
2023-03-28T19:22:41.867Z,22.70
2023-03-28T19:25:10.139Z,22.60
2023-03-28T19:27:38.018Z,22.60
2023-03-28T19:30:08.155Z,22.60
2023-03-28T19:32:38.240Z,22.60
2023-03-28T19:35:06.084Z,22.60
2023-03-28T19:37:33.209Z,22.60
2023-03-28T19:40:00.350Z,22.60
2023-03-28T19:42:27.770Z,22.60
2023-03-28T19:44:54.815Z,22.60
2023-03-28T19:47:21.847Z,22.60
2023-03-28T19:49:49.432Z,22.50
2023-03-28T19:52:16.515Z,22.50
2023-03-28T19:54:43.630Z,22.50
2023-03-28T19:57:10.815Z,22.50
2023-03-28T19:59:37.895Z,22.50
2023-03-28T20:02:05.042Z,22.50
2023-03-28T20:04:32.157Z,22.50
2023-03-28T20:06:59.284Z,22.50
2023-03-28T20:09:26.438Z,22.50
2023-03-28T20:11:53.437Z,22.50
2023-03-28T20:14:21.662Z,22.40
2023-03-28T20:16:49.059Z,22.40
2023-03-28T20:19:18.246Z,22.40
2023-03-28T20:21:45.403Z,22.40
2023-03-28T20:24:12.446Z,22.40
2023-03-28T20:26:40.062Z,22.40
2023-03-28T20:29:10.426Z,22.40
2023-03-28T20:31:37.487Z,22.40
2023-03-28T20:34:04.603Z,22.40
2023-03-28T20:36:32.997Z,22.40
2023-03-28T20:39:04.157Z,22.40
2023-03-28T20:41:31.182Z,22.30
2023-03-28T20:44:03.462Z,22.30
2023-03-28T20:46:32.917Z,22.30
2023-03-28T20:49:00.509Z,22.30
2023-03-28T20:51:29.389Z,22.30
2023-03-28T20:53:59.164Z,22.30
2023-03-28T20:56:29.123Z,22.30
2023-03-28T20:58:58.360Z,22.30
2023-03-28T21:01:28.238Z,22.30
2023-03-28T21:03:58.886Z,22.30
2023-03-28T21:06:36.050Z,22.30
2023-03-28T21:09:10.132Z,22.30
2023-03-28T21:11:39.471Z,22.30
2023-03-28T21:14:07.861Z,22.30
2023-03-28T21:16:35.354Z,22.30
2023-03-28T21:19:02.889Z,22.30
2023-03-28T21:21:33.243Z,22.30
2023-03-28T21:24:00.444Z,22.30
2023-03-28T21:26:27.638Z,22.30
2023-03-28T21:28:54.850Z,22.30
2023-03-28T21:31:26.393Z,22.30
2023-03-28T21:33:57.400Z,22.30
2023-03-28T21:36:26.732Z,22.30
2023-03-28T21:38:54.455Z,22.30
2023-03-28T21:41:22.768Z,22.30
2023-03-28T21:43:50.338Z,22.20
2023-03-28T21:46:18.862Z,22.30
2023-03-28T21:48:48.296Z,22.30
2023-03-28T21:51:15.940Z,22.20
2023-03-28T21:53:43.122Z,22.20
2023-03-28T21:56:12.856Z,22.20
2023-03-28T21:58:40.590Z,22.20
2023-03-28T22:01:08.315Z,22.20
2023-03-28T22:03:38.722Z,22.20
2023-03-28T22:06:06.613Z,22.20
2023-03-28T22:08:33.747Z,22.20
2023-03-28T22:11:04.849Z,22.20
2023-03-28T22:13:32.286Z,22.20
2023-03-28T22:16:00.128Z,22.20
2023-03-28T22:18:28.081Z,22.20
2023-03-28T22:20:55.646Z,22.10
2023-03-28T22:23:24.114Z,22.20
2023-03-28T22:25:53.247Z,22.20
2023-03-28T22:28:24.698Z,22.10
2023-03-28T22:30:56.947Z,22.10
2023-03-28T22:33:25.682Z,22.10
2023-03-28T22:35:53.215Z,22.10
2023-03-28T22:38:20.483Z,22.10
2023-03-28T22:40:47.787Z,22.10
2023-03-28T22:43:15.669Z,22.10
2023-03-28T22:45:43.395Z,22.10
2023-03-28T22:48:17.266Z,22.10
2023-03-28T22:50:45.011Z,22.10
2023-03-28T22:53:12.973Z,22.10
2023-03-28T22:55:41.904Z,22.10
2023-03-28T22:58:09.236Z,22.10
2023-03-28T23:00:36.417Z,22.10
2023-03-28T23:03:04.009Z,22.10
2023-03-28T23:05:31.259Z,22.10
2023-03-28T23:08:00.255Z,22.20
2023-03-28T23:10:27.582Z,22.20
2023-03-28T23:12:54.687Z,22.20
2023-03-28T23:15:22.021Z,22.20
2023-03-28T23:17:49.148Z,22.20
2023-03-28T23:20:17.260Z,22.10
2023-03-28T23:22:47.413Z,22.10
2023-03-28T23:25:17.287Z,22.10
2023-03-28T23:27:44.957Z,22.10
2023-03-28T23:30:13.863Z,22.10
2023-03-28T23:32:41.133Z,22.10
2023-03-28T23:35:10.547Z,22.10
2023-03-28T23:37:38.578Z,22.10
2023-03-28T23:40:11.280Z,22.00
2023-03-28T23:42:38.393Z,22.00
2023-03-28T23:45:05.883Z,22.00
2023-03-28T23:47:32.931Z,22.00
2023-03-28T23:50:00.007Z,22.00
2023-03-28T23:52:27.241Z,22.00
2023-03-28T23:54:54.272Z,22.00
2023-03-28T23:57:25.144Z,22.00
2023-03-28T23:59:52.375Z,22.00
